createdAt,value
2022-10-09T00:02:00.629Z,17.10
2022-10-09T00:06:03.518Z,17.10
2022-10-09T00:10:05.922Z,12.10
2022-10-09T00:14:07.822Z,15.30
2022-10-09T00:18:12.011Z,10.20
2022-10-09T00:22:13.841Z,12.80
2022-10-09T00:26:16.375Z,14.00
2022-10-09T00:30:18.266Z,12.70
2022-10-09T00:34:20.148Z,13.00
2022-10-09T00:38:21.968Z,13.50
2022-10-09T00:42:26.009Z,11.40
2022-10-09T00:46:47.914Z,13.50
2022-10-09T00:50:54.112Z,12.90
2022-10-09T00:54:56.923Z,15.20
2022-10-09T00:58:59.489Z,11.30
2022-10-09T01:03:01.403Z,13.70
2022-10-09T01:07:13.328Z,9.30
2022-10-09T01:12:00.367Z,15.30
2022-10-09T01:16:28.362Z,15.50
2022-10-09T01:20:39.178Z,12.90
2022-10-09T01:24:47.860Z,8.50
2022-10-09T01:28:58.978Z,7.00
2022-10-09T01:33:02.668Z,10.60
2022-10-09T01:37:07.208Z,6.40
2022-10-09T01:41:09.701Z,10.00
2022-10-09T01:45:13.882Z,10.40
2022-10-09T01:49:36.806Z,10.20
2022-10-09T01:53:39.644Z,9.50
2022-10-09T01:57:56.719Z,7.80
2022-10-09T02:02:00.312Z,8.30
2022-10-09T02:06:05.716Z,7.70
2022-10-09T02:10:08.966Z,8.00
2022-10-09T02:14:11.480Z,8.40
2022-10-09T02:18:18.836Z,7.40
2022-10-09T02:22:31.925Z,5.90
2022-10-09T02:26:34.169Z,12.30
2022-10-09T02:31:19.273Z,7.70
2022-10-09T02:35:21.570Z,8.30
2022-10-09T02:39:23.508Z,8.70
2022-10-09T02:43:25.528Z,7.50
2022-10-09T02:47:27.367Z,8.00
2022-10-09T02:51:29.197Z,10.20
2022-10-09T02:55:31.032Z,12.60
2022-10-09T02:59:32.961Z,12.90
2022-10-09T03:03:35.176Z,11.60
2022-10-09T03:07:37.246Z,10.20
2022-10-09T03:11:39.074Z,8.80
2022-10-09T03:15:41.009Z,8.30
2022-10-09T03:19:42.973Z,18.90
2022-10-09T03:23:45.191Z,10.50
2022-10-09T03:27:47.021Z,11.70
2022-10-09T03:31:53.330Z,11.00
2022-10-09T03:35:55.672Z,9.80
2022-10-09T03:39:58.408Z,7.90
2022-10-09T03:44:00.429Z,14.20
2022-10-09T03:48:02.624Z,7.60
2022-10-09T03:52:04.486Z,10.00
2022-10-09T03:56:06.525Z,6.80
2022-10-09T04:00:10.105Z,12.30
2022-10-09T04:04:11.937Z,6.40
2022-10-09T04:08:14.277Z,7.20
2022-10-09T04:12:16.203Z,11.70
2022-10-09T04:16:18.153Z,11.00
2022-10-09T04:20:21.038Z,11.70
2022-10-09T04:24:22.942Z,14.60
2022-10-09T04:28:26.490Z,7.20
2022-10-09T04:32:28.410Z,10.90
2022-10-09T04:36:30.289Z,12.00
2022-10-09T04:40:32.093Z,13.00
2022-10-09T04:44:33.960Z,11.80
2022-10-09T04:48:40.188Z,11.60
2022-10-09T04:52:42.030Z,14.90
2022-10-09T04:56:43.957Z,16.40
2022-10-09T05:00:46.273Z,5.10
2022-10-09T05:04:48.248Z,10.40
2022-10-09T05:08:51.024Z,8.10
2022-10-09T05:12:53.254Z,9.20
2022-10-09T05:17:12.888Z,13.30
2022-10-09T05:21:16.609Z,14.80
2022-10-09T05:25:18.469Z,17.70
2022-10-09T05:29:20.473Z,10.90
2022-10-09T05:33:22.454Z,16.80
2022-10-09T05:37:24.313Z,10.80
2022-10-09T05:41:26.434Z,11.60
2022-10-09T05:45:28.285Z,12.40
2022-10-09T05:49:30.157Z,9.50
2022-10-09T05:53:32.195Z,10.20
2022-10-09T05:57:34.111Z,9.10
2022-10-09T06:01:39.035Z,14.10
2022-10-09T06:05:40.908Z,9.00
2022-10-09T06:09:42.897Z,8.90
2022-10-09T06:13:45.658Z,15.70
2022-10-09T06:17:47.580Z,8.60
2022-10-09T06:21:50.218Z,9.40
2022-10-09T06:25:57.833Z,12.10
2022-10-09T06:29:59.652Z,13.30
2022-10-09T06:34:02.900Z,8.00
2022-10-09T06:38:04.845Z,9.20
2022-10-09T06:42:06.694Z,12.60
2022-10-09T06:46:23.363Z,12.30
2022-10-09T06:50:25.269Z,9.70
2022-10-09T06:54:27.162Z,7.50
2022-10-09T06:58:29.330Z,8.20
2022-10-09T07:02:34.104Z,10.10
2022-10-09T07:06:41.762Z,9.50
2022-10-09T07:10:43.585Z,8.50
2022-10-09T07:14:45.515Z,16.30
2022-10-09T07:18:47.765Z,12.10
2022-10-09T07:22:49.865Z,11.30
2022-10-09T07:26:54.693Z,8.70
2022-10-09T07:30:56.962Z,12.30
2022-10-09T07:34:58.856Z,9.80
2022-10-09T07:39:01.305Z,12.60
2022-10-09T07:43:03.167Z,10.90
2022-10-09T07:47:05.054Z,13.40
2022-10-09T07:51:21.994Z,12.50
2022-10-09T07:55:23.946Z,18.00
2022-10-09T07:59:25.817Z,8.10
2022-10-09T08:03:27.624Z,8.80
2022-10-09T08:07:34.821Z,15.20
2022-10-09T08:11:40.106Z,7.50
2022-10-09T08:15:43.207Z,7.40
2022-10-09T08:19:45.178Z,15.80
2022-10-09T08:23:47.101Z,16.40
2022-10-09T08:27:52.261Z,16.60
2022-10-09T08:31:54.148Z,13.40
2022-10-09T08:36:07.319Z,8.40
2022-10-09T08:40:16.817Z,11.30
2022-10-09T08:44:33.375Z,10.60
2022-10-09T08:48:43.911Z,9.50
2022-10-09T08:52:50.190Z,10.60
2022-10-09T08:56:52.678Z,10.20
2022-10-09T09:01:06.957Z,7.10
2022-10-09T09:05:36.449Z,9.20
2022-10-09T09:09:50.668Z,10.20
2022-10-09T09:14:21.543Z,10.00
2022-10-09T09:18:42.829Z,16.90
2022-10-09T09:22:48.557Z,15.70
2022-10-09T09:26:55.339Z,13.10
2022-10-09T09:31:12.781Z,12.30
2022-10-09T09:35:20.787Z,14.10
2022-10-09T09:40:08.327Z,15.80
2022-10-09T09:43:47.834Z,18.80
2022-10-09T09:48:04.175Z,13.30
2022-10-09T09:52:08.866Z,15.10
2022-10-09T09:56:10.876Z,14.10
2022-10-09T10:00:15.796Z,9.90
2022-10-09T10:04:20.233Z,4.70
2022-10-09T10:08:33.438Z,4.20
2022-10-09T10:13:02.421Z,5.70
2022-10-09T10:17:05.511Z,9.20
2022-10-09T10:21:12.392Z,6.50
2022-10-09T10:25:18.437Z,2.80
2022-10-09T10:29:27.127Z,4.30
2022-10-09T10:33:33.179Z,7.70
2022-10-09T10:37:46.687Z,5.00
2022-10-09T10:41:53.406Z,8.60
2022-10-09T10:46:56.967Z,7.60
2022-10-09T10:51:20.193Z,12.40
2022-10-09T10:55:52.582Z,11.50
2022-10-09T11:00:10.459Z,7.30
2022-10-09T11:04:32.926Z,7.60
2022-10-09T11:08:55.898Z,13.30
2022-10-09T11:13:03.393Z,11.50
2022-10-09T11:17:28.427Z,10.50
2022-10-09T11:21:55.032Z,18.90
2022-10-09T11:26:45.103Z,7.60
2022-10-09T11:31:02.919Z,10.60
2022-10-09T11:35:40.254Z,19.00
2022-10-09T11:39:43.136Z,20.30
2022-10-09T11:44:00.729Z,10.80
2022-10-09T11:48:12.442Z,12.50
2022-10-09T11:52:35.319Z,11.60
2022-10-09T11:56:37.304Z,12.50
2022-10-09T12:00:42.574Z,14.00
2022-10-09T12:05:01.078Z,14.90
2022-10-09T12:09:07.769Z,18.70
2022-10-09T12:13:29.645Z,7.90
2022-10-09T12:17:34.948Z,12.00
2022-10-09T12:21:45.405Z,21.90
2022-10-09T12:25:48.571Z,11.50
2022-10-09T12:29:55.495Z,10.30
2022-10-09T12:34:05.590Z,15.80
2022-10-09T12:38:26.741Z,7.20
2022-10-09T12:42:29.123Z,15.40
2022-10-09T12:46:35.842Z,12.60
2022-10-09T12:50:38.986Z,9.20
2022-10-09T12:54:43.856Z,6.40
2022-10-09T12:58:46.067Z,8.80
2022-10-09T13:02:48.507Z,12.00
2022-10-09T13:06:52.286Z,7.30
2022-10-09T13:10:55.069Z,7.40
2022-10-09T13:15:04.556Z,8.40
2022-10-09T13:19:23.980Z,9.60
2022-10-09T13:23:29.742Z,11.10
2022-10-09T13:27:35.015Z,10.50
2022-10-09T13:31:37.567Z,15.20
2022-10-09T13:35:39.548Z,9.60
2022-10-09T13:39:43.119Z,13.40
2022-10-09T13:43:45.733Z,10.50
2022-10-09T13:47:48.158Z,8.70
2022-10-09T13:51:50.439Z,10.50
2022-10-09T13:55:55.924Z,12.40
2022-10-09T13:59:59.772Z,16.30
2022-10-09T14:04:01.940Z,40.60
2022-10-09T14:08:04.380Z,22.00
2022-10-09T14:12:06.397Z,16.70
2022-10-09T14:16:10.538Z,20.50
2022-10-09T14:20:12.504Z,28.50
2022-10-09T14:24:15.064Z,26.80
2022-10-09T14:28:17.091Z,15.60
2022-10-09T14:32:19.095Z,27.60
2022-10-09T14:36:21.020Z,22.60
2022-10-09T14:40:22.913Z,35.20
2022-10-09T14:44:25.261Z,33.70
2022-10-09T14:48:27.082Z,28.20
2022-10-09T14:52:29.002Z,16.00
2022-10-09T14:56:31.224Z,20.10
2022-10-09T15:00:33.141Z,19.30
2022-10-09T15:04:35.039Z,23.10
2022-10-09T15:08:40.300Z,26.80
2022-10-09T15:12:42.129Z,124.70
2022-10-09T15:16:44.440Z,78.00
2022-10-09T15:20:46.550Z,42.90
2022-10-09T15:24:49.110Z,67.90
2022-10-09T15:28:51.125Z,43.20
2022-10-09T15:32:53.161Z,44.80
2022-10-09T15:36:55.067Z,47.00
2022-10-09T15:40:57.047Z,44.70
2022-10-09T15:44:59.573Z,202.50
2022-10-09T15:49:01.553Z,128.40
2022-10-09T15:53:10.086Z,89.10
2022-10-09T15:57:12.270Z,76.00
2022-10-09T16:01:16.902Z,63.10
2022-10-09T16:05:19.485Z,62.40
2022-10-09T16:09:21.577Z,95.20
2022-10-09T16:13:26.266Z,63.20
2022-10-09T16:17:28.077Z,45.40
2022-10-09T16:21:30.091Z,38.30
2022-10-09T16:25:32.644Z,47.90
2022-10-09T16:29:35.561Z,67.70
2022-10-09T16:33:37.623Z,71.80
2022-10-09T16:37:39.520Z,57.60
2022-10-09T16:41:42.173Z,65.70
2022-10-09T16:45:44.962Z,50.40
2022-10-09T16:49:47.005Z,42.10
2022-10-09T16:53:53.528Z,58.50
2022-10-09T16:57:55.997Z,37.20
2022-10-09T17:01:59.818Z,37.60
2022-10-09T17:06:05.896Z,26.50
2022-10-09T17:10:09.067Z,22.90
2022-10-09T17:14:11.647Z,16.30
2022-10-09T17:18:13.525Z,11.60
2022-10-09T17:22:15.367Z,14.50
2022-10-09T17:26:19.090Z,13.30
2022-10-09T17:30:21.484Z,29.30
2022-10-09T17:34:23.615Z,36.90
2022-10-09T17:38:25.735Z,50.50
2022-10-09T17:42:27.555Z,44.20
2022-10-09T17:46:30.259Z,49.30
2022-10-09T17:50:32.594Z,57.70
2022-10-09T17:54:34.567Z,42.70
2022-10-09T17:58:36.716Z,86.70
2022-10-09T18:02:38.645Z,80.50
2022-10-09T18:06:41.075Z,93.50
2022-10-09T18:10:43.571Z,55.10
2022-10-09T18:14:46.146Z,80.40
2022-10-09T18:18:48.652Z,72.30
2022-10-09T18:22:50.521Z,51.10
2022-10-09T18:26:59.461Z,54.30
2022-10-09T18:31:13.968Z,41.70
2022-10-09T18:35:16.298Z,26.50
2022-10-09T18:39:20.985Z,16.90
2022-10-09T18:43:22.942Z,23.60
2022-10-09T18:47:28.128Z,22.10
2022-10-09T18:51:31.399Z,25.40
2022-10-09T18:55:33.623Z,14.50
2022-10-09T18:59:37.633Z,15.30
2022-10-09T19:03:44.774Z,15.30
2022-10-09T19:07:49.661Z,26.30
2022-10-09T19:11:52.237Z,31.80
2022-10-09T19:15:58.200Z,37.90
2022-10-09T19:20:00.675Z,33.50
2022-10-09T19:24:05.642Z,27.10
2022-10-09T19:28:07.513Z,15.30
2022-10-09T19:32:09.417Z,27.90
2022-10-09T19:36:13.218Z,39.10
2022-10-09T19:40:15.176Z,58.70
2022-10-09T19:44:17.435Z,64.20
2022-10-09T19:48:19.960Z,96.20
2022-10-09T19:52:22.785Z,58.00
2022-10-09T19:56:27.130Z,65.00
2022-10-09T20:00:29.532Z,48.00
2022-10-09T20:04:31.749Z,75.10
2022-10-09T20:08:34.201Z,56.30
2022-10-09T20:12:36.128Z,49.60
2022-10-09T20:16:38.113Z,52.60
2022-10-09T20:20:46.414Z,55.70
2022-10-09T20:24:48.281Z,49.40
2022-10-09T20:28:53.452Z,47.80
2022-10-09T20:32:58.994Z,54.60
2022-10-09T20:37:01.247Z,42.20
2022-10-09T20:41:06.245Z,33.40
2022-10-09T20:45:08.372Z,41.30
2022-10-09T20:49:12.845Z,35.50
2022-10-09T20:53:16.248Z,28.30
2022-10-09T20:57:18.144Z,31.30
2022-10-09T21:01:21.046Z,34.00
2022-10-09T21:05:23.149Z,39.80
2022-10-09T21:09:27.482Z,35.30
2022-10-09T21:13:31.480Z,37.30
2022-10-09T21:17:33.380Z,32.60
2022-10-09T21:21:35.561Z,30.60
2022-10-09T21:25:38.059Z,26.20
2022-10-09T21:29:39.914Z,36.30
2022-10-09T21:33:42.216Z,24.70
2022-10-09T21:37:44.248Z,20.70
2022-10-09T21:41:46.289Z,21.90
2022-10-09T21:45:51.543Z,29.50
2022-10-09T21:49:53.505Z,29.30
2022-10-09T21:53:55.458Z,46.40
2022-10-09T21:57:57.384Z,30.50
2022-10-09T22:01:59.268Z,31.40
2022-10-09T22:06:06.119Z,35.40
2022-10-09T22:10:08.340Z,27.10
2022-10-09T22:14:10.168Z,37.40
2022-10-09T22:18:12.297Z,24.20
2022-10-09T22:22:14.319Z,27.60
2022-10-09T22:26:19.041Z,29.40
2022-10-09T22:30:20.837Z,34.90
2022-10-09T22:34:22.770Z,30.60
2022-10-09T22:38:24.621Z,32.20
2022-10-09T22:42:26.436Z,25.90
2022-10-09T22:46:31.754Z,31.10
2022-10-09T22:50:36.457Z,28.70
2022-10-09T22:54:38.268Z,29.00
2022-10-09T22:58:40.142Z,28.10
2022-10-09T23:02:41.968Z,30.90
2022-10-09T23:06:45.034Z,22.20
2022-10-09T23:10:46.830Z,23.60
2022-10-09T23:14:48.711Z,40.40
2022-10-09T23:18:50.994Z,39.80
2022-10-09T23:22:53.545Z,37.00
2022-10-09T23:26:55.401Z,42.30
2022-10-09T23:31:05.102Z,30.70
2022-10-09T23:35:07.327Z,26.20
2022-10-09T23:39:09.362Z,25.80
2022-10-09T23:43:11.141Z,23.30
2022-10-09T23:47:12.965Z,20.90
2022-10-09T23:51:15.315Z,24.70
2022-10-09T23:55:17.166Z,26.70
2022-10-09T23:59:19.591Z,22.40
